createdAt,value
2022-08-17T00:01:16.142Z,54.55
2022-08-17T00:06:25.772Z,57.47
2022-08-17T00:11:31.678Z,55.53
2022-08-17T00:16:50.379Z,52.85
2022-08-17T00:22:32.711Z,53.85
2022-08-17T00:27:21.016Z,52.50
2022-08-17T00:33:14.715Z,46.30
2022-08-17T00:37:45.313Z,44.35
2022-08-17T00:42:48.535Z,45.47
2022-08-17T00:47:50.717Z,46.28
2022-08-17T00:52:55.928Z,57.40
2022-08-17T00:58:01.712Z,54.58
2022-08-17T01:03:09.840Z,60.17
2022-08-17T01:08:14.887Z,60.55
2022-08-17T01:13:17.557Z,60.33
2022-08-17T01:18:19.811Z,63.13
2022-08-17T01:23:24.128Z,58.87
2022-08-17T01:28:52.449Z,65.15
2022-08-17T01:33:52.177Z,60.25
2022-08-17T01:38:54.399Z,68.63
2022-08-17T01:44:02.869Z,59.07
2022-08-17T01:49:10.318Z,54.70
2022-08-17T01:54:16.160Z,60.67
2022-08-17T01:59:19.910Z,61.17
2022-08-17T02:04:22.070Z,57.45
2022-08-17T02:09:29.773Z,57.20
2022-08-17T02:14:32.252Z,62.92
2022-08-17T02:19:36.180Z,61.33
2022-08-17T02:25:00.360Z,63.10
2022-08-17T02:35:29.224Z,60.83
2022-08-17T02:40:36.308Z,65.23
2022-08-17T02:45:38.966Z,70.47
2022-08-17T02:50:41.093Z,68.67
2022-08-17T02:55:44.724Z,67.90
2022-08-17T03:00:47.370Z,54.90
2022-08-17T03:05:50.204Z,57.95
2022-08-17T03:10:53.101Z,50.40
2022-08-17T03:15:55.259Z,53.65
2022-08-17T03:21:00.765Z,52.70
2022-08-17T03:26:02.950Z,54.67
2022-08-17T03:31:06.262Z,60.95
2022-08-17T03:36:08.857Z,57.20
2022-08-17T03:41:11.022Z,64.00
2022-08-17T03:46:29.009Z,63.40
2022-08-17T03:51:35.327Z,60.03
2022-08-17T03:56:37.820Z,64.93
2022-08-17T04:01:40.389Z,64.57
2022-08-17T04:06:43.097Z,65.50
2022-08-17T04:11:45.256Z,60.50
2022-08-17T04:16:47.575Z,63.67
2022-08-17T04:21:49.883Z,66.07
2022-08-17T04:26:54.377Z,68.47
2022-08-17T04:31:57.066Z,67.97
2022-08-17T04:36:59.292Z,67.85
2022-08-17T04:42:01.426Z,68.10
2022-08-17T04:47:03.635Z,62.63
2022-08-17T04:52:05.835Z,65.80
2022-08-17T04:57:08.601Z,58.20
2022-08-17T05:02:14.081Z,61.97
2022-08-17T05:07:21.093Z,63.75
2022-08-17T05:12:25.313Z,67.28
2022-08-17T05:17:27.477Z,60.60
2022-08-17T05:22:29.662Z,61.77
2022-08-17T05:27:32.907Z,65.67
2022-08-17T05:32:40.369Z,63.83
2022-08-17T05:37:42.742Z,66.82
2022-08-17T05:42:44.926Z,63.40
2022-08-17T05:47:47.631Z,61.77
2022-08-17T05:53:14.748Z,58.45
2022-08-17T05:58:46.259Z,57.58
2022-08-17T06:04:10.019Z,55.88
2022-08-17T06:09:26.559Z,56.53
2022-08-17T06:14:44.104Z,56.60
2022-08-17T06:19:54.474Z,51.90
2022-08-17T06:25:09.990Z,50.33
2022-08-17T06:30:16.361Z,52.50
2022-08-17T06:35:46.840Z,52.50
2022-08-17T06:41:24.166Z,48.70
2022-08-17T06:46:37.416Z,44.97
2022-08-17T06:57:05.111Z,43.75
2022-08-17T07:02:15.325Z,42.33
2022-08-17T07:07:20.291Z,46.78
2022-08-17T07:12:27.756Z,43.65
2022-08-17T07:17:46.391Z,42.42
2022-08-17T07:23:08.845Z,45.55
2022-08-17T07:28:11.008Z,43.13
2022-08-17T07:33:17.275Z,44.17
2022-08-17T07:38:31.556Z,46.97
2022-08-17T07:43:39.534Z,43.13
2022-08-17T07:48:46.362Z,41.10
2022-08-17T07:53:49.028Z,36.88
2022-08-17T08:04:21.339Z,29.52
2022-08-17T08:10:00.386Z,27.73
2022-08-17T08:15:22.842Z,26.30
2022-08-17T08:20:52.971Z,25.48
2022-08-17T08:26:40.750Z,22.20
2022-08-17T08:31:50.494Z,19.65
2022-08-17T08:37:22.841Z,18.60
2022-08-17T08:42:39.248Z,20.80
2022-08-17T08:47:53.711Z,21.23
2022-08-17T08:52:58.828Z,20.45
2022-08-17T08:58:08.274Z,19.92
2022-08-17T09:03:52.718Z,21.45
2022-08-17T09:09:03.760Z,21.95
2022-08-17T09:14:21.524Z,23.25
2022-08-17T09:19:31.033Z,23.35
2022-08-17T09:24:38.848Z,24.60
2022-08-17T09:29:55.677Z,23.27
2022-08-17T09:35:14.633Z,25.00
2022-08-17T09:40:47.664Z,25.88
2022-08-17T09:46:00.170Z,25.73
2022-08-17T09:51:36.381Z,24.85
2022-08-17T09:57:27.828Z,22.95
2022-08-17T10:03:04.964Z,22.05
2022-08-17T10:08:22.809Z,22.17
2022-08-17T10:13:52.827Z,19.63
2022-08-17T10:19:18.287Z,21.33
2022-08-17T10:24:33.745Z,19.42
2022-08-17T10:29:49.227Z,20.15
2022-08-17T10:35:20.748Z,21.35
2022-08-17T10:40:50.396Z,21.35
2022-08-17T10:46:17.149Z,22.80
2022-08-17T10:51:38.682Z,26.42
2022-08-17T10:56:51.502Z,26.67
2022-08-17T11:02:04.260Z,27.50
2022-08-17T11:07:56.613Z,28.27
2022-08-17T11:13:50.937Z,27.60
2022-08-17T11:19:11.029Z,27.25
2022-08-17T11:24:21.636Z,26.48
2022-08-17T11:29:29.328Z,24.73
2022-08-17T11:34:34.629Z,27.13
2022-08-17T11:40:01.393Z,27.85
2022-08-17T11:45:35.478Z,27.30
2022-08-17T11:50:44.809Z,30.23
2022-08-17T11:55:53.060Z,32.00
2022-08-17T12:01:03.614Z,34.17
2022-08-17T12:06:34.047Z,34.85
2022-08-17T12:12:12.395Z,35.90
2022-08-17T12:17:40.914Z,37.22
2022-08-17T12:23:02.334Z,35.45
2022-08-17T12:28:19.910Z,38.22
2022-08-17T12:33:28.147Z,37.88
2022-08-17T12:38:35.153Z,36.50
2022-08-17T12:43:38.582Z,35.95
2022-08-17T12:54:02.118Z,29.65
2022-08-17T12:59:04.301Z,28.23
2022-08-17T13:09:12.092Z,28.08
2022-08-17T13:14:14.394Z,26.30
2022-08-17T13:19:18.235Z,26.08
2022-08-17T13:24:38.253Z,24.92
2022-08-17T13:29:53.101Z,24.17
2022-08-17T13:35:14.105Z,23.35
2022-08-17T13:40:18.811Z,23.58
2022-08-17T13:45:35.443Z,26.05
2022-08-17T13:50:43.985Z,27.77
2022-08-17T13:55:53.633Z,29.20
2022-08-17T14:00:55.820Z,30.90
2022-08-17T14:11:08.949Z,28.35
2022-08-17T14:21:13.311Z,24.40
2022-08-17T14:26:15.467Z,25.10
2022-08-17T14:31:17.640Z,24.20
2022-08-17T14:36:19.807Z,24.05
2022-08-17T14:41:22.364Z,26.60
2022-08-17T14:46:24.659Z,26.40
2022-08-17T14:51:29.421Z,27.90
2022-08-17T14:56:31.766Z,27.27
2022-08-17T15:01:40.270Z,28.98
2022-08-17T15:06:43.360Z,30.55
2022-08-17T15:11:45.543Z,6.13
2022-08-17T15:16:47.726Z,3.58
2022-08-17T15:21:49.898Z,3.40
2022-08-17T15:26:52.039Z,4.43
2022-08-17T15:31:58.661Z,4.10
2022-08-17T15:37:02.676Z,4.75
2022-08-17T15:42:05.045Z,4.53
2022-08-17T15:47:07.200Z,3.95
2022-08-17T15:52:25.993Z,4.37
2022-08-17T15:57:28.185Z,6.30
2022-08-17T16:03:45.218Z,8.40
2022-08-17T16:07:55.920Z,10.48
2022-08-17T16:12:58.065Z,9.00
2022-08-17T16:18:00.259Z,8.30
2022-08-17T16:23:02.403Z,6.90
2022-08-17T16:28:05.023Z,7.27
2022-08-17T16:33:07.259Z,7.90
2022-08-17T16:38:09.474Z,7.60
2022-08-17T16:43:11.613Z,6.97
2022-08-17T16:48:13.747Z,5.33
2022-08-17T16:53:18.531Z,5.43
2022-08-17T16:58:20.746Z,6.05
2022-08-17T17:03:26.024Z,6.90
2022-08-17T17:08:44.384Z,5.90
2022-08-17T17:13:55.469Z,6.63
2022-08-17T17:19:00.306Z,6.25
2022-08-17T17:24:12.065Z,5.85
2022-08-17T17:29:27.387Z,6.63
2022-08-17T17:34:33.747Z,6.50
2022-08-17T17:39:44.667Z,6.60
2022-08-17T17:45:01.157Z,6.25
2022-08-17T17:50:06.614Z,7.03
2022-08-17T17:55:47.663Z,7.13
2022-08-17T18:01:12.931Z,7.95
2022-08-17T18:06:32.312Z,8.60
2022-08-17T18:11:53.411Z,8.07
2022-08-17T18:17:01.208Z,5.57
2022-08-17T18:22:15.297Z,4.75
2022-08-17T18:27:23.085Z,5.18
2022-08-17T18:32:51.622Z,5.28
2022-08-17T18:38:18.029Z,6.38
2022-08-17T18:43:44.090Z,6.72
2022-08-17T18:49:02.242Z,8.07
2022-08-17T18:54:23.118Z,9.57
2022-08-17T18:59:45.513Z,11.10
2022-08-17T19:05:01.866Z,11.82
2022-08-17T19:10:28.334Z,11.90
2022-08-17T19:15:35.148Z,13.65
2022-08-17T19:20:43.848Z,14.35
2022-08-17T19:25:55.285Z,13.73
2022-08-17T19:31:03.248Z,13.52
2022-08-17T19:36:29.436Z,13.25
2022-08-17T19:41:41.104Z,15.15
2022-08-17T19:47:36.634Z,12.68
2022-08-17T19:52:52.552Z,12.48
2022-08-17T19:58:11.324Z,14.63
2022-08-17T20:03:31.697Z,13.55
2022-08-17T20:08:53.953Z,13.95
2022-08-17T20:14:05.433Z,16.30
2022-08-17T20:19:10.703Z,15.48
2022-08-17T20:24:32.265Z,14.00
2022-08-17T20:30:00.561Z,18.33
2022-08-17T20:35:19.708Z,18.45
2022-08-17T20:40:36.363Z,18.40
2022-08-17T20:46:19.650Z,18.88
2022-08-17T20:51:34.893Z,18.95
2022-08-17T20:56:43.015Z,17.63
2022-08-17T21:02:02.418Z,18.38
2022-08-17T21:07:24.528Z,18.10
2022-08-17T21:12:40.311Z,16.80
2022-08-17T21:17:56.762Z,18.80
2022-08-17T21:23:23.174Z,18.13
2022-08-17T21:29:00.819Z,16.17
2022-08-17T21:34:23.872Z,17.15
2022-08-17T21:39:39.699Z,17.80
2022-08-17T21:44:49.200Z,18.27
2022-08-17T21:49:53.084Z,18.10
2022-08-17T21:54:58.454Z,18.13
2022-08-17T22:00:04.848Z,17.95
2022-08-17T22:05:11.593Z,14.77
2022-08-17T22:10:37.063Z,15.60
2022-08-17T22:15:42.219Z,15.63
2022-08-17T22:20:45.497Z,16.42
2022-08-17T22:26:01.338Z,15.52
2022-08-17T22:31:05.663Z,18.58
2022-08-17T22:36:19.498Z,17.95
2022-08-17T22:41:28.748Z,18.05
2022-08-17T22:46:31.133Z,16.85
2022-08-17T22:51:33.553Z,14.32
2022-08-17T22:56:36.766Z,12.55
2022-08-17T23:01:40.605Z,11.85
2022-08-17T23:06:42.804Z,10.88
2022-08-17T23:11:49.740Z,10.15
2022-08-17T23:16:52.435Z,9.77
2022-08-17T23:21:56.344Z,9.98
2022-08-17T23:26:58.514Z,9.85
2022-08-17T23:32:01.563Z,10.13
2022-08-17T23:37:03.801Z,10.52
2022-08-17T23:42:08.688Z,10.23
2022-08-17T23:47:11.351Z,10.25
2022-08-17T23:52:15.745Z,9.80
2022-08-17T23:57:20.844Z,10.43
